createdAt,value
2022-07-28T00:00:59.678Z,88.52
2022-07-28T00:03:27.041Z,88.58
2022-07-28T00:05:54.497Z,88.06
2022-07-28T00:08:22.449Z,88.13
2022-07-28T00:10:53.261Z,88.52
2022-07-28T00:13:23.282Z,87.91
2022-07-28T00:15:50.869Z,88.65
2022-07-28T00:18:18.728Z,88.61
2022-07-28T00:20:46.013Z,88.78
2022-07-28T00:23:13.370Z,88.32
2022-07-28T00:25:42.227Z,88.25
2022-07-28T00:28:09.534Z,87.87
2022-07-28T00:30:37.130Z,88.03
2022-07-28T00:33:04.702Z,87.81
2022-07-28T00:35:32.154Z,87.91
2022-07-28T00:38:00.308Z,88.35
2022-07-28T00:40:48.121Z,88.19
2022-07-28T00:43:15.607Z,88.45
2022-07-28T00:45:43.034Z,88.16
2022-07-28T00:48:10.700Z,87.82
2022-07-28T00:50:39.263Z,87.96
2022-07-28T00:53:07.881Z,88.37
2022-07-28T00:56:05.631Z,87.68
2022-07-28T00:58:23.731Z,87.58
2022-07-28T01:00:51.074Z,86.44
2022-07-28T01:03:18.593Z,87.94
2022-07-28T01:06:13.754Z,88.13
2022-07-28T01:08:59.835Z,89.01
2022-07-28T01:11:48.681Z,91.54
2022-07-28T01:15:00.617Z,89.10
2022-07-28T01:17:36.686Z,89.20
2022-07-28T01:20:07.574Z,87.64
2022-07-28T01:22:38.885Z,90.48
2022-07-28T01:25:23.370Z,90.50
2022-07-28T01:28:05.965Z,90.04
2022-07-28T01:30:35.449Z,90.54
2022-07-28T01:33:04.905Z,90.33
2022-07-28T01:35:39.798Z,90.21
2022-07-28T01:38:07.628Z,90.63
2022-07-28T01:40:35.759Z,90.81
2022-07-28T01:43:06.105Z,90.85
2022-07-28T01:45:38.101Z,90.71
2022-07-28T01:48:05.786Z,90.87
2022-07-28T01:50:33.039Z,91.81
2022-07-28T01:53:00.328Z,91.92
2022-07-28T01:55:30.592Z,91.53
2022-07-28T01:57:58.087Z,90.63
2022-07-28T02:00:25.494Z,91.22
2022-07-28T02:02:55.118Z,90.55
2022-07-28T02:05:22.730Z,91.04
2022-07-28T02:07:50.147Z,90.84
2022-07-28T02:10:17.855Z,90.64
2022-07-28T02:12:45.580Z,90.62
2022-07-28T02:15:13.800Z,90.93
2022-07-28T02:17:47.756Z,91.04
2022-07-28T02:20:15.520Z,90.73
2022-07-28T02:22:43.998Z,90.04
2022-07-28T02:25:18.508Z,90.57
2022-07-28T02:27:51.098Z,90.43
2022-07-28T02:30:31.127Z,90.53
2022-07-28T02:33:58.761Z,90.79
2022-07-28T02:36:36.741Z,91.41
2022-07-28T02:39:07.793Z,91.10
2022-07-28T02:41:38.488Z,90.53
2022-07-28T02:44:12.394Z,90.28
2022-07-28T02:46:43.358Z,90.44
2022-07-28T02:49:12.800Z,90.19
2022-07-28T02:51:41.039Z,90.19
2022-07-28T02:54:08.441Z,90.03
2022-07-28T02:56:35.707Z,90.50
2022-07-28T02:59:03.182Z,90.50
2022-07-28T03:01:31.841Z,90.28
2022-07-28T03:03:59.404Z,90.34
2022-07-28T03:06:28.785Z,89.58
2022-07-28T03:08:57.461Z,90.17
2022-07-28T03:11:25.035Z,90.65
2022-07-28T03:13:53.843Z,89.95
2022-07-28T03:16:21.412Z,89.93
2022-07-28T03:18:53.704Z,89.79
2022-07-28T03:21:21.106Z,90.52
2022-07-28T03:23:48.569Z,90.38
2022-07-28T03:26:20.055Z,90.10
2022-07-28T03:28:47.661Z,89.29
2022-07-28T03:31:15.037Z,89.56
2022-07-28T03:33:43.806Z,89.79
2022-07-28T03:36:16.927Z,89.33
2022-07-28T03:38:48.809Z,89.37
2022-07-28T03:41:16.100Z,87.73
2022-07-28T03:43:44.048Z,87.29
2022-07-28T03:46:13.325Z,85.04
2022-07-28T03:48:42.641Z,86.55
2022-07-28T03:51:09.908Z,86.73
2022-07-28T03:53:37.257Z,86.22
2022-07-28T03:56:05.155Z,86.23
2022-07-28T03:58:32.536Z,85.16
2022-07-28T04:00:59.856Z,83.96
2022-07-28T04:03:42.999Z,84.43
2022-07-28T04:06:12.606Z,83.50
2022-07-28T04:08:39.924Z,82.98
2022-07-28T04:11:07.343Z,81.84
2022-07-28T04:13:36.862Z,81.29
2022-07-28T04:16:05.008Z,80.57
2022-07-28T04:18:32.379Z,80.89
2022-07-28T04:20:59.616Z,80.50
2022-07-28T04:23:26.977Z,80.45
2022-07-28T04:25:54.655Z,79.86
2022-07-28T04:28:22.751Z,79.15
2022-07-28T04:30:50.160Z,79.30
2022-07-28T04:33:19.535Z,78.94
2022-07-28T04:35:47.170Z,78.66
2022-07-28T04:38:15.142Z,78.70
2022-07-28T04:40:42.657Z,78.39
2022-07-28T04:43:13.232Z,77.49
2022-07-28T04:45:46.088Z,77.32
2022-07-28T04:48:23.018Z,76.57
2022-07-28T04:50:52.592Z,76.30
2022-07-28T04:53:20.851Z,75.73
2022-07-28T04:55:49.437Z,76.25
2022-07-28T04:58:18.745Z,76.75
2022-07-28T05:00:49.909Z,75.52
2022-07-28T05:03:18.482Z,73.81
2022-07-28T05:05:47.161Z,74.05
2022-07-28T05:08:22.143Z,74.14
2022-07-28T05:10:55.010Z,72.54
2022-07-28T05:13:22.807Z,72.47
2022-07-28T05:15:51.172Z,72.29
2022-07-28T05:18:20.868Z,71.52
2022-07-28T05:20:48.150Z,70.76
2022-07-28T05:23:17.625Z,70.58
2022-07-28T05:25:44.981Z,70.56
2022-07-28T05:28:12.389Z,71.55
2022-07-28T05:30:40.221Z,70.71
2022-07-28T05:33:07.509Z,71.55
2022-07-28T05:35:35.300Z,71.17
2022-07-28T05:38:06.273Z,70.36
2022-07-28T05:40:36.217Z,69.12
2022-07-28T05:43:03.481Z,69.59
2022-07-28T05:45:31.056Z,69.63
2022-07-28T05:47:58.323Z,68.77
2022-07-28T05:50:26.591Z,68.64
2022-07-28T05:52:54.255Z,68.99
2022-07-28T05:55:21.539Z,68.87
2022-07-28T05:57:49.731Z,68.33
2022-07-28T06:00:18.772Z,66.66
2022-07-28T06:02:47.311Z,67.08
2022-07-28T06:05:17.083Z,67.75
2022-07-28T06:07:49.587Z,67.04
2022-07-28T06:10:18.367Z,64.55
2022-07-28T06:12:48.528Z,65.24
2022-07-28T06:15:21.545Z,65.80
2022-07-28T06:17:52.542Z,64.49
2022-07-28T06:20:23.594Z,63.55
2022-07-28T06:22:54.994Z,64.53
2022-07-28T06:25:27.443Z,64.52
2022-07-28T06:27:56.205Z,63.15
2022-07-28T06:30:23.595Z,61.87
2022-07-28T06:32:51.382Z,64.74
2022-07-28T06:35:18.907Z,61.83
2022-07-28T06:37:47.493Z,60.95
2022-07-28T06:40:15.864Z,61.73
2022-07-28T06:42:43.876Z,62.46
2022-07-28T06:45:19.734Z,61.08
2022-07-28T06:47:49.936Z,58.91
2022-07-28T06:50:25.120Z,59.53
2022-07-28T06:52:57.064Z,58.56
2022-07-28T06:55:28.511Z,59.39
2022-07-28T06:58:02.455Z,56.76
2022-07-28T07:00:29.953Z,55.82
2022-07-28T07:02:57.641Z,56.77
2022-07-28T07:05:25.947Z,56.47
2022-07-28T07:07:53.796Z,54.90
2022-07-28T07:10:21.356Z,54.28
2022-07-28T07:13:14.561Z,55.02
2022-07-28T07:15:44.891Z,53.87
2022-07-28T07:18:12.180Z,52.61
2022-07-28T07:20:39.772Z,53.77
2022-07-28T07:23:07.517Z,51.72
2022-07-28T07:25:35.794Z,52.27
2022-07-28T07:28:03.103Z,56.58
2022-07-28T07:30:31.454Z,53.95
2022-07-28T07:32:58.727Z,52.70
2022-07-28T07:35:28.058Z,51.63
2022-07-28T07:37:56.146Z,52.06
2022-07-28T07:40:24.373Z,52.19
2022-07-28T07:42:52.159Z,52.32
2022-07-28T07:45:19.583Z,51.17
2022-07-28T07:47:47.837Z,48.53
2022-07-28T07:50:15.828Z,50.76
2022-07-28T07:52:43.098Z,51.66
2022-07-28T07:55:12.331Z,50.69
2022-07-28T07:57:40.001Z,47.53
2022-07-28T08:00:08.160Z,49.25
2022-07-28T08:02:55.458Z,45.52
2022-07-28T08:05:34.767Z,47.74
2022-07-28T08:08:02.573Z,46.87
2022-07-28T08:10:30.006Z,44.33
2022-07-28T08:12:58.414Z,45.84
2022-07-28T08:15:27.536Z,45.72
2022-07-28T08:17:57.881Z,46.80
2022-07-28T08:20:25.141Z,46.49
2022-07-28T08:22:54.309Z,45.14
2022-07-28T08:25:22.014Z,45.87
2022-07-28T08:27:49.389Z,44.35
2022-07-28T08:30:22.988Z,42.64
2022-07-28T08:32:56.442Z,43.50
2022-07-28T08:35:34.644Z,43.86
2022-07-28T08:38:05.710Z,44.62
2022-07-28T08:40:33.081Z,45.39
2022-07-28T08:43:23.295Z,44.92
2022-07-28T08:45:56.235Z,43.25
2022-07-28T08:48:28.923Z,43.21
2022-07-28T08:50:56.486Z,41.31
2022-07-28T08:53:23.914Z,41.75
2022-07-28T08:55:51.352Z,42.64
2022-07-28T08:58:18.624Z,41.28
2022-07-28T09:00:46.376Z,42.37
2022-07-28T09:03:13.918Z,41.31
2022-07-28T09:05:44.117Z,40.62
2022-07-28T09:08:12.638Z,40.52
2022-07-28T09:10:39.986Z,40.83
2022-07-28T09:13:17.128Z,38.63
2022-07-28T09:15:46.554Z,38.33
2022-07-28T09:18:14.568Z,38.96
2022-07-28T09:20:44.125Z,38.08
2022-07-28T09:23:41.741Z,39.73
2022-07-28T09:26:10.895Z,39.81
2022-07-28T09:28:58.743Z,38.99
2022-07-28T09:31:28.102Z,38.86
2022-07-28T09:34:00.992Z,36.78
2022-07-28T09:36:29.939Z,35.46
2022-07-28T09:38:57.209Z,37.17
2022-07-28T09:41:25.302Z,38.19
2022-07-28T09:43:56.102Z,39.47
2022-07-28T09:46:25.517Z,40.86
2022-07-28T09:48:58.000Z,38.99
2022-07-28T09:51:30.651Z,37.22
2022-07-28T09:54:15.128Z,33.93
2022-07-28T09:56:46.427Z,32.08
2022-07-28T09:59:15.043Z,30.76
2022-07-28T10:02:01.595Z,28.64
2022-07-28T10:04:47.802Z,27.53
2022-07-28T10:07:17.274Z,27.07
2022-07-28T10:10:03.864Z,27.40
2022-07-28T10:12:32.623Z,27.03
2022-07-28T10:15:31.526Z,27.15
2022-07-28T10:17:58.926Z,25.78
2022-07-28T10:20:27.610Z,26.57
2022-07-28T10:23:01.740Z,27.18
2022-07-28T10:25:30.313Z,25.76
2022-07-28T10:27:59.367Z,25.23
2022-07-28T10:30:31.627Z,23.85
2022-07-28T10:32:59.329Z,23.91
2022-07-28T10:35:26.985Z,25.88
2022-07-28T10:38:06.342Z,28.19
2022-07-28T10:40:36.356Z,28.60
2022-07-28T10:43:03.643Z,26.55
2022-07-28T10:46:02.675Z,25.27
2022-07-28T10:48:18.386Z,24.66
2022-07-28T10:50:45.749Z,24.89
2022-07-28T10:53:13.040Z,24.90
2022-07-28T10:55:50.541Z,24.36
2022-07-28T10:58:24.777Z,25.27
2022-07-28T11:00:56.821Z,24.55
2022-07-28T11:03:44.315Z,23.32
2022-07-28T11:06:39.860Z,23.55
2022-07-28T11:09:16.250Z,23.55
2022-07-28T11:11:54.163Z,25.57
2022-07-28T11:14:33.914Z,25.65
2022-07-28T11:17:12.077Z,26.49
2022-07-28T11:19:55.935Z,24.22
2022-07-28T11:22:33.935Z,23.78
2022-07-28T11:25:20.749Z,23.61
2022-07-28T11:27:53.488Z,22.31
2022-07-28T11:30:33.009Z,23.53
2022-07-28T11:33:01.092Z,22.72
2022-07-28T11:35:33.125Z,22.48
2022-07-28T11:38:00.520Z,22.94
2022-07-28T11:40:33.859Z,22.97
2022-07-28T11:43:37.000Z,22.35
2022-07-28T11:46:10.404Z,22.18
2022-07-28T11:48:44.729Z,23.22
2022-07-28T11:51:12.842Z,24.12
2022-07-28T11:53:51.526Z,22.70
2022-07-28T11:56:36.192Z,22.87
2022-07-28T11:59:05.743Z,21.71
2022-07-28T12:01:36.889Z,21.95
2022-07-28T12:04:13.516Z,21.78
2022-07-28T12:06:51.308Z,22.33
2022-07-28T12:09:26.815Z,22.80
2022-07-28T12:11:56.791Z,24.18
2022-07-28T12:14:29.511Z,24.20
2022-07-28T12:16:56.869Z,24.72
2022-07-28T12:19:32.752Z,23.88
2022-07-28T12:22:00.470Z,23.66
2022-07-28T12:24:28.461Z,24.12
2022-07-28T12:27:00.688Z,22.45
2022-07-28T12:29:32.324Z,22.96
2022-07-28T12:32:09.758Z,21.98
2022-07-28T12:34:39.969Z,22.14
2022-07-28T12:37:10.023Z,23.09
2022-07-28T12:39:42.254Z,23.39
2022-07-28T12:42:13.583Z,22.37
2022-07-28T12:44:47.517Z,22.49
2022-07-28T12:47:17.682Z,22.49
2022-07-28T12:49:45.124Z,22.57
2022-07-28T12:52:22.474Z,23.35
2022-07-28T12:54:55.578Z,23.93
2022-07-28T12:57:49.361Z,23.11
2022-07-28T13:00:24.039Z,22.16
2022-07-28T13:02:56.037Z,22.56
2022-07-28T13:05:33.453Z,22.20
2022-07-28T13:08:03.179Z,22.29
2022-07-28T13:10:45.861Z,21.89
2022-07-28T13:13:13.445Z,22.16
2022-07-28T13:15:42.503Z,22.09
2022-07-28T13:18:09.862Z,23.61
2022-07-28T13:20:53.923Z,22.92
2022-07-28T13:23:21.367Z,22.85
2022-07-28T13:25:52.277Z,23.12
2022-07-28T13:28:24.124Z,22.45
2022-07-28T13:30:51.846Z,23.23
2022-07-28T13:33:19.449Z,24.68
2022-07-28T13:35:50.241Z,26.29
2022-07-28T13:38:18.152Z,26.19
2022-07-28T13:40:45.631Z,28.23
2022-07-28T13:43:14.373Z,30.03
2022-07-28T13:45:42.650Z,31.41
2022-07-28T13:48:10.027Z,32.64
2022-07-28T13:50:40.764Z,32.97
2022-07-28T13:53:27.160Z,33.13
2022-07-28T13:55:56.150Z,32.10
2022-07-28T13:58:24.216Z,31.08
2022-07-28T14:00:51.701Z,31.40
2022-07-28T14:03:19.079Z,30.50
2022-07-28T14:05:46.385Z,28.60
2022-07-28T14:11:12.544Z,27.03
2022-07-28T14:13:42.119Z,26.18
2022-07-28T14:16:14.400Z,26.84
2022-07-28T14:18:42.009Z,27.50
2022-07-28T14:21:09.377Z,27.97
2022-07-28T14:23:38.080Z,29.13
2022-07-28T14:26:33.229Z,28.63
2022-07-28T14:28:53.386Z,29.61
2022-07-28T14:31:20.978Z,31.27
2022-07-28T14:33:54.241Z,31.16
2022-07-28T14:36:22.230Z,29.69
2022-07-28T14:38:53.562Z,29.57
2022-07-28T14:41:25.970Z,30.51
2022-07-28T14:43:53.299Z,31.58
2022-07-28T14:46:22.181Z,31.71
2022-07-28T14:48:57.338Z,30.95
2022-07-28T14:51:24.978Z,30.82
2022-07-28T14:53:52.398Z,31.31
2022-07-28T14:56:20.312Z,31.75
2022-07-28T14:58:47.869Z,32.61
2022-07-28T15:01:15.209Z,31.62
2022-07-28T15:03:43.122Z,30.85
2022-07-28T15:06:11.052Z,30.94
2022-07-28T15:08:38.434Z,31.73
2022-07-28T15:11:09.136Z,31.09
2022-07-28T15:13:36.457Z,32.39
2022-07-28T15:16:06.477Z,31.27
2022-07-28T15:18:36.731Z,32.23
2022-07-28T15:21:06.549Z,32.67
2022-07-28T15:23:34.406Z,33.42
2022-07-28T15:26:01.746Z,33.06
2022-07-28T15:28:29.351Z,33.13
2022-07-28T15:30:56.808Z,34.26
2022-07-28T15:33:25.531Z,34.44
2022-07-28T15:35:58.209Z,35.24
2022-07-28T15:38:31.968Z,34.67
2022-07-28T15:40:59.849Z,34.74
2022-07-28T15:43:32.814Z,34.63
2022-07-28T15:46:03.567Z,35.73
2022-07-28T15:48:30.725Z,37.45
2022-07-28T15:50:58.422Z,38.68
2022-07-28T15:53:25.709Z,40.16
2022-07-28T15:55:53.312Z,41.17
2022-07-28T15:58:21.419Z,42.12
2022-07-28T16:00:52.541Z,42.61
2022-07-28T16:03:22.660Z,44.08
2022-07-28T16:05:50.297Z,44.75
2022-07-28T16:08:18.562Z,45.70
2022-07-28T16:10:52.576Z,46.23
2022-07-28T16:13:32.142Z,46.22
2022-07-28T16:16:09.718Z,48.06
2022-07-28T16:18:37.769Z,47.55
2022-07-28T16:21:05.649Z,48.76
2022-07-28T16:23:33.416Z,50.24
2022-07-28T16:26:04.180Z,49.96
2022-07-28T16:28:31.562Z,49.95
2022-07-28T16:30:58.904Z,52.51
2022-07-28T16:33:26.518Z,53.03
2022-07-28T16:35:54.297Z,52.18
2022-07-28T16:38:21.730Z,52.23
2022-07-28T16:40:49.031Z,52.24
2022-07-28T16:43:16.452Z,52.91
2022-07-28T16:45:44.401Z,52.92
2022-07-28T16:51:03.187Z,52.77
2022-07-28T16:53:30.741Z,51.87
2022-07-28T16:55:58.036Z,53.33
2022-07-28T16:58:25.351Z,54.11
2022-07-28T17:00:52.660Z,54.21
2022-07-28T17:03:20.619Z,54.66
2022-07-28T17:05:48.568Z,53.68
2022-07-28T17:08:16.924Z,54.49
2022-07-28T17:10:47.384Z,55.65
2022-07-28T17:13:16.290Z,56.11
2022-07-28T17:15:44.300Z,54.02
2022-07-28T17:18:14.258Z,53.88
2022-07-28T17:20:47.535Z,54.44
2022-07-28T17:23:15.635Z,54.99
2022-07-28T17:26:20.404Z,55.33
2022-07-28T17:28:33.944Z,54.82
2022-07-28T17:31:01.756Z,55.27
2022-07-28T17:33:29.241Z,55.84
2022-07-28T17:35:58.649Z,55.20
2022-07-28T17:38:32.525Z,56.19
2022-07-28T17:43:55.322Z,55.63
2022-07-28T17:46:23.183Z,56.89
2022-07-28T17:48:54.589Z,55.50
2022-07-28T17:51:22.072Z,56.38
2022-07-28T17:53:50.345Z,57.59
2022-07-28T17:56:22.923Z,58.05
2022-07-28T17:58:54.043Z,58.59
2022-07-28T18:01:21.412Z,58.38
2022-07-28T18:03:56.929Z,57.87
2022-07-28T18:06:32.551Z,59.47
2022-07-28T18:09:06.602Z,57.94
2022-07-28T18:11:56.525Z,58.72
2022-07-28T18:14:30.134Z,59.00
2022-07-28T18:16:57.911Z,59.32
2022-07-28T18:19:29.091Z,58.87
2022-07-28T18:21:56.693Z,59.17
2022-07-28T18:24:24.205Z,60.16
2022-07-28T18:26:51.786Z,60.23
2022-07-28T18:29:21.199Z,60.01
2022-07-28T18:31:52.197Z,60.89
2022-07-28T18:34:23.093Z,62.06
2022-07-28T18:36:53.441Z,62.02
2022-07-28T18:39:20.931Z,62.20
2022-07-28T18:41:48.755Z,63.24
2022-07-28T18:44:17.815Z,62.84
2022-07-28T18:46:46.630Z,63.22
2022-07-28T18:49:15.022Z,64.14
2022-07-28T18:51:44.905Z,63.76
2022-07-28T18:54:24.765Z,64.99
2022-07-28T18:56:56.279Z,65.14
2022-07-28T18:59:23.896Z,65.32
2022-07-28T19:01:53.255Z,65.20
2022-07-28T19:04:20.657Z,65.18
2022-07-28T19:06:48.068Z,65.80
2022-07-28T19:09:16.088Z,66.05
2022-07-28T19:11:46.188Z,66.10
2022-07-28T19:14:15.866Z,66.95
2022-07-28T19:16:43.943Z,67.12
2022-07-28T19:19:14.701Z,67.25
2022-07-28T19:21:43.332Z,67.26
2022-07-28T19:24:12.986Z,67.55
2022-07-28T19:26:40.823Z,68.44
2022-07-28T19:29:10.121Z,68.60
2022-07-28T19:31:37.585Z,68.69
2022-07-28T19:34:11.435Z,68.13
2022-07-28T19:36:41.672Z,69.18
2022-07-28T19:39:09.598Z,69.52
2022-07-28T19:41:37.425Z,69.73
2022-07-28T19:44:04.961Z,69.99
2022-07-28T19:46:32.482Z,70.12
2022-07-28T19:49:00.740Z,70.14
2022-07-28T19:51:28.542Z,69.83
2022-07-28T19:54:00.390Z,70.53
2022-07-28T19:56:31.616Z,71.15
2022-07-28T19:58:59.446Z,71.17
2022-07-28T20:01:28.198Z,71.20
2022-07-28T20:04:01.249Z,71.78
2022-07-28T20:06:32.337Z,72.20
2022-07-28T20:09:00.597Z,72.05
2022-07-28T20:11:33.082Z,72.48
2022-07-28T20:14:01.116Z,73.05
2022-07-28T20:16:28.467Z,71.81
2022-07-28T20:18:59.550Z,72.46
2022-07-28T20:21:26.991Z,73.37
2022-07-28T20:23:55.463Z,74.01
2022-07-28T20:26:26.214Z,74.26
2022-07-28T20:28:55.530Z,74.17
2022-07-28T20:31:26.630Z,74.57
2022-07-28T20:33:54.111Z,74.72
2022-07-28T20:36:23.981Z,75.09
2022-07-28T20:38:56.316Z,76.53
2022-07-28T20:41:23.625Z,77.15
2022-07-28T20:44:11.186Z,77.72
2022-07-28T20:46:41.581Z,77.65
2022-07-28T20:49:09.007Z,77.51
2022-07-28T20:51:36.282Z,78.00
2022-07-28T20:54:04.737Z,78.41
2022-07-28T20:56:32.335Z,78.38
2022-07-28T20:59:06.499Z,78.59
2022-07-28T21:01:34.436Z,78.77
2022-07-28T21:04:01.735Z,79.03
2022-07-28T21:06:29.358Z,78.67
2022-07-28T21:08:59.908Z,78.92
2022-07-28T21:11:35.010Z,78.98
2022-07-28T21:14:04.063Z,79.12
2022-07-28T21:16:32.262Z,78.49
2022-07-28T21:19:00.479Z,79.02
2022-07-28T21:21:29.843Z,79.05
2022-07-28T21:23:57.357Z,79.42
2022-07-28T21:26:24.647Z,79.83
2022-07-28T21:29:10.979Z,79.39
2022-07-28T21:32:04.856Z,79.23
2022-07-28T21:34:29.530Z,79.24
2022-07-28T21:37:04.826Z,78.11
2022-07-28T21:39:34.927Z,79.34
2022-07-28T21:42:05.679Z,79.74
2022-07-28T21:44:34.994Z,79.77
2022-07-28T21:47:02.719Z,79.84
2022-07-28T21:49:31.410Z,79.05
2022-07-28T21:51:58.726Z,78.48
2022-07-28T21:54:26.159Z,78.75
2022-07-28T21:56:53.841Z,77.44
2022-07-28T21:59:21.303Z,77.25
2022-07-28T22:01:49.609Z,76.49
2022-07-28T22:04:17.651Z,76.71
2022-07-28T22:06:46.592Z,76.29
2022-07-28T22:09:14.980Z,76.02
2022-07-28T22:11:42.594Z,74.90
2022-07-28T22:14:09.888Z,75.83
2022-07-28T22:16:41.300Z,74.84
2022-07-28T22:19:11.974Z,75.50
2022-07-28T22:21:39.566Z,74.75
2022-07-28T22:24:07.744Z,75.29
2022-07-28T22:26:35.167Z,74.66
2022-07-28T22:29:05.141Z,74.02
2022-07-28T22:31:32.681Z,73.39
2022-07-28T22:34:00.084Z,74.83
2022-07-28T22:36:27.704Z,74.24
2022-07-28T22:38:55.752Z,74.99
2022-07-28T22:41:23.342Z,75.14
2022-07-28T22:43:50.597Z,75.79
2022-07-28T22:46:18.547Z,75.35
2022-07-28T22:48:46.265Z,75.23
2022-07-28T22:51:14.429Z,75.53
2022-07-28T22:53:41.762Z,75.77
2022-07-28T22:56:09.651Z,75.50
2022-07-28T22:58:36.995Z,75.47
2022-07-28T23:01:05.915Z,76.49
2022-07-28T23:03:34.631Z,80.84
2022-07-28T23:06:03.835Z,81.56
2022-07-28T23:08:31.147Z,80.21
2022-07-28T23:10:58.821Z,82.89
2022-07-28T23:13:27.307Z,82.03
2022-07-28T23:15:55.696Z,83.00
2022-07-28T23:18:22.967Z,79.97
2022-07-28T23:20:53.306Z,82.26
2022-07-28T23:23:21.282Z,81.25
2022-07-28T23:25:48.589Z,80.26
2022-07-28T23:28:17.854Z,81.72
2022-07-28T23:30:48.143Z,82.34
2022-07-28T23:33:55.830Z,82.32
2022-07-28T23:36:07.078Z,83.93
2022-07-28T23:38:40.318Z,81.72
2022-07-28T23:41:12.398Z,80.37
2022-07-28T23:43:40.495Z,80.67
2022-07-28T23:46:08.443Z,80.96
2022-07-28T23:48:35.973Z,80.21
2022-07-28T23:51:03.354Z,80.01
2022-07-28T23:53:39.717Z,79.57
2022-07-28T23:56:08.375Z,81.04
2022-07-28T23:58:35.719Z,82.43
